»·PEaware :: UAL1600 KSFO-KSAN

UAL1600 :: KSFO-KSAN

FLIGHT INFORMATION

Flight Status: Arrived
Operator:
United Airlines
More flights by this operator :: More flights under this callsign
Pilot: Robert N. (30982)
Aircraft: Unknown
(73G)
More flights by this aircraft type
Origin: KSFO San Francisco Intl
United States
Destination: KSAN San Diego Intl-Lindbergh
United States
More flights between these airports :: More routes between these airports
Route: +WESLA4 YYUNG LAX HUBRD1
File this flight plan on PilotEdge
Remarks: KSFO TO KSAN
Altitude:
(Current/Filed)
35,000ft
Speed:
(Current/Filed)
303kts
Departed: 02-Aug-20 06:57 PM
Arrived: 02-Aug-20 08:08 PM
Distance/Time
Traveled:
387nm/1:11
Distance/Time
To Go:
Arrived

Flight Plot

Page will automatically refresh every two minutes.

Flight plan parsing failed; only flown route is shown


Map Options




Map Legend


Flown Route
Filed Route
Departure Airport
Arrival Airport
Navaid (VOR, NDB)
Fix

Horizontal Profiles

Position Reports

Time Latitude Longitude Heading Altitude Ground
Speed
02-Aug-20 18:26 37.612598 -122.384641 5 21ft 0kts
02-Aug-20 18:27 37.612598 -122.384641 5 21ft 0kts
02-Aug-20 18:28 37.612598 -122.384641 5 21ft 0kts
02-Aug-20 18:29 37.612598 -122.384641 5 21ft 0kts
02-Aug-20 18:30 37.612598 -122.384641 5 21ft 0kts
02-Aug-20 18:31 37.612598 -122.384641 5 21ft 0kts
02-Aug-20 18:32 37.612598 -122.384641 5 21ft 0kts
02-Aug-20 18:33 37.612598 -122.384641 5 21ft 0kts
02-Aug-20 18:34 37.612598 -122.384641 5 21ft 0kts
02-Aug-20 18:35 37.612598 -122.384641 5 21ft 0kts
02-Aug-20 18:36 37.612598 -122.384641 5 21ft 0kts
02-Aug-20 18:37 37.612598 -122.384641 5 21ft 0kts
02-Aug-20 18:38 37.612598 -122.384641 5 21ft 0kts
02-Aug-20 18:39 37.612598 -122.384641 5 21ft 0kts
02-Aug-20 18:40 37.612598 -122.384641 5 21ft 0kts
02-Aug-20 18:41 37.612598 -122.384641 5 21ft 0kts
02-Aug-20 18:42 37.612598 -122.384641 5 21ft 0kts
02-Aug-20 18:43 37.612598 -122.384641 5 21ft 0kts
02-Aug-20 18:44 37.612153 -122.384693 6 21ft 2kts
02-Aug-20 18:45 37.611955 -122.384929 105 21ft 0kts
02-Aug-20 18:46 37.611955 -122.384929 105 21ft 0kts
02-Aug-20 18:47 37.611955 -122.384929 105 21ft 0kts
02-Aug-20 18:48 37.611955 -122.384927 105 21ft 0kts
02-Aug-20 18:49 37.612131 -122.382684 26 21ft 9kts
02-Aug-20 18:50 37.614392 -122.381205 27 21ft 12kts
02-Aug-20 18:51 37.616770 -122.378711 100 21ft 10kts
02-Aug-20 18:52 37.616230 -122.373615 93 21ft 6kts
02-Aug-20 18:53 37.615787 -122.371636 115 21ft 11kts
02-Aug-20 18:54 37.613410 -122.367078 117 21ft 18kts
02-Aug-20 18:55 37.610707 -122.360583 117 21ft 21kts
02-Aug-20 18:56 37.613533 -122.362751 297 21ft 80kts
02-Aug-20 18:57 37.634683 -122.412904 299 1734ft 179kts
02-Aug-20 18:58 37.663089 -122.477351 298 3438ft 240kts
02-Aug-20 18:59 37.643299 -122.545700 190 6085ft 272kts
02-Aug-20 19:00 37.569163 -122.515368 161 9133ft 291kts
02-Aug-20 19:01 37.491992 -122.472870 150 11228ft 333kts
02-Aug-20 19:02 37.416802 -122.387653 138 13016ft 379kts
02-Aug-20 19:03 37.339604 -122.294017 138 15450ft 392kts
02-Aug-20 19:04 37.259139 -122.197445 138 17680ft 406kts
02-Aug-20 19:05 37.176270 -122.097509 138 18988ft 418kts
02-Aug-20 19:06 37.092553 -121.997291 138 19563ft 420kts
02-Aug-20 19:07 37.007166 -121.895570 138 21525ft 429kts
02-Aug-20 19:08 36.919175 -121.791116 138 23228ft 440kts
02-Aug-20 19:09 36.829116 -121.684569 138 24766ft 450kts
02-Aug-20 19:10 36.737052 -121.576020 138 26148ft 460kts
02-Aug-20 19:11 36.643323 -121.465889 138 27388ft 468kts
02-Aug-20 19:12 36.547823 -121.353662 139 28505ft 476kts
02-Aug-20 19:13 36.450494 -121.240375 139 29734ft 478kts
02-Aug-20 19:14 36.352800 -121.129369 142 31043ft 474kts
02-Aug-20 19:15 36.250675 -121.026456 143 32268ft 471kts
02-Aug-20 19:16 36.149710 -120.923741 142 33407ft 469kts
02-Aug-20 19:17 36.049389 -120.821133 142 34475ft 467kts
02-Aug-20 19:18 35.948754 -120.718841 142 34991ft 468kts
02-Aug-20 19:19 35.848702 -120.617292 143 34996ft 466kts
02-Aug-20 19:20 35.748362 -120.516307 143 34996ft 466kts
02-Aug-20 19:21 35.650595 -120.411634 137 34997ft 467kts
02-Aug-20 19:22 35.557259 -120.299760 138 34996ft 467kts
02-Aug-20 19:23 35.463666 -120.189377 138 34997ft 467kts
02-Aug-20 19:24 35.369952 -120.078409 138 34996ft 467kts
02-Aug-20 19:25 35.276217 -119.968290 138 34997ft 467kts
02-Aug-20 19:26 35.182276 -119.858448 138 34996ft 467kts
02-Aug-20 19:27 35.088170 -119.748804 138 34996ft 467kts
02-Aug-20 19:28 34.993939 -119.639387 138 34996ft 467kts
02-Aug-20 19:29 34.899984 -119.530653 138 34996ft 467kts
02-Aug-20 19:30 34.805422 -119.421580 138 34996ft 467kts
02-Aug-20 19:31 34.711051 -119.313088 138 34996ft 467kts
02-Aug-20 19:32 34.616508 -119.204754 138 34996ft 467kts
02-Aug-20 19:33 34.521915 -119.096719 139 34998ft 467kts
02-Aug-20 19:34 34.427203 -118.988899 139 34997ft 467kts
02-Aug-20 19:35 34.332436 -118.881367 139 34996ft 467kts
02-Aug-20 19:36 34.238082 -118.774646 139 34995ft 459kts
02-Aug-20 19:37 34.145196 -118.669648 139 34298ft 452kts
02-Aug-20 19:38 34.054269 -118.567462 139 32604ft 440kts
02-Aug-20 19:39 33.965762 -118.468476 139 30982ft 430kts
02-Aug-20 19:40 33.882064 -118.367762 134 29415ft 421kts
02-Aug-20 19:41 33.802961 -118.265503 135 27849ft 412kts
02-Aug-20 19:42 33.725346 -118.166356 135 26298ft 403kts
02-Aug-20 19:43 33.649571 -118.069013 135 24757ft 395kts
02-Aug-20 19:44 33.574915 -117.973905 136 23223ft 387kts
02-Aug-20 19:45 33.501629 -117.881159 136 21703ft 379kts
02-Aug-20 19:46 33.429735 -117.790149 136 20203ft 372kts
02-Aug-20 19:47 33.359250 -117.701221 136 18729ft 365kts
02-Aug-20 19:48 33.289603 -117.613740 136 17246ft 359kts
02-Aug-20 19:49 33.221355 -117.527990 136 15797ft 353kts
02-Aug-20 19:51 33.154190 -117.444056 137 14384ft 345kts
02-Aug-20 19:52 33.074575 -117.386728 159 12995ft 332kts
02-Aug-20 19:53 32.991367 -117.341103 158 11624ft 326kts
02-Aug-20 19:54 32.909660 -117.295900 158 10251ft 320kts
02-Aug-20 19:55 32.844474 -117.234844 123 9760ft 296kts
02-Aug-20 19:56 32.805723 -117.145435 111 8225ft 305kts
02-Aug-20 19:57 32.787386 -117.047801 102 7163ft 294kts
02-Aug-20 19:58 32.772751 -116.961599 102 6828ft 241kts
02-Aug-20 19:59 32.759846 -116.888123 102 5809ft 213kts
02-Aug-20 20:00 32.739304 -116.827722 155 4919ft 197kts
02-Aug-20 20:01 32.691651 -116.850969 238 4971ft 194kts
02-Aug-20 20:02 32.672235 -116.910199 252 4973ft 192kts
02-Aug-20 20:03 32.680290 -116.971014 288 4228ft 191kts
02-Aug-20 20:04 32.694911 -117.030349 286 3036ft 186kts
02-Aug-20 20:05 32.708939 -117.088143 286 1884ft 179kts
02-Aug-20 20:06 32.722652 -117.144685 286 758ft 176kts
02-Aug-20 20:07 32.734353 -117.193315 286 23ft 46kts
02-Aug-20 20:07 32.736180 -117.202274 188 23ft 13kts
02-Aug-20 20:09 32.735874 -117.202313 189 23ft 0kts
02-Aug-20 20:10 32.735874 -117.202313 189 23ft 0kts
02-Aug-20 20:10 32.735751 -117.202343 192 23ft 5kts
02-Aug-20 20:11 32.734512 -117.203627 233 23ft 0kts
02-Aug-20 20:13 32.734512 -117.203627 233 23ft 0kts

Navigation Log

Ident Type
Flight plan parsing failed, navigation log unavailable